Time;durP1;ratioP1;P1;durP2;ratioP2;P2;SDS_P1;SDS_P2;PMS_P1;PMS_P2;Temp;Humidity;BMP_temperature;BMP_pressure;BME280_temperature;BME280_humidity;BME280_pressure;Samples;Min_cycle;Max_cycle;Signal;HPM_P1;HPM_P2
2022/08/09 00:04:04;;;;;;;7.90;3.40;;;;;;;17.19;68.73;100313.16;10338298;28;20046;-75
2022/08/09 00:09:05;;;;;;;56.35;5.28;;;;;;;16.86;69.15;100255.03;10338823;28;20045;-75
2022/08/09 00:14:08;;;;;;;12.40;3.13;;;;;;;17.20;68.86;100314.81;10338636;28;20052;-75
2022/08/09 00:19:09;;;;;;;16.90;3.50;;;;;;;17.38;68.50;100350.88;10337321;28;20398;-75
2022/08/09 00:24:09;;;;;;;9.10;3.00;;;;;;;17.25;68.94;100332.97;10338389;28;20062;-75
2022/08/09 00:29:10;;;;;;;7.70;2.97;;;;;;;17.26;69.22;100346.19;10337420;28;20537;-75
2022/08/09 00:34:11;;;;;;;7.25;2.63;;;;;;;17.25;68.91;100347.19;10337891;28;20042;-75
2022/08/09 00:39:12;;;;;;;10.40;3.10;;;;;;;17.06;69.68;100332.00;10337534;28;20038;-75
2022/08/09 00:44:13;;;;;;;9.13;3.15;;;;;;;17.06;69.46;100348.09;10337995;28;20129;-75
2022/08/09 00:49:14;;;;;;;11.75;3.53;;;;;;;17.11;70.09;100349.13;10337131;28;20034;-75
2022/08/09 00:54:15;;;;;;;12.98;3.47;;;;;;;16.97;70.50;100358.22;10303156;28;20065;-75
2022/08/09 00:59:16;;;;;;;6.22;3.05;;;;;;;16.68;70.32;100324.59;10296491;28;20138;-74
2022/08/09 01:05:10;;;;;;;10.90;3.55;;;;;;;16.98;72.00;100367.09;10296144;28;20520;-75
2022/08/09 01:10:37;;;;;;;13.85;3.60;;;;;;;16.60;72.26;100311.41;10323280;28;20045;-75
2022/08/09 01:15:45;;;;;;;19.70;3.45;;;;;;;16.86;72.53;100373.09;10335392;28;20050;-75
2022/08/09 01:20:59;;;;;;;6.43;2.72;;;;;;;16.84;73.12;100372.50;10336174;28;20046;-76
2022/08/09 01:26:37;;;;;;;6.20;3.00;;;;;;;16.86;72.74;100369.59;10335243;28;20160;-75
2022/08/09 01:31:42;;;;;;;6.80;2.92;;;;;;;16.57;72.34;100363.63;10336409;28;20503;-75
2022/08/09 01:36:45;;;;;;;24.85;4.68;;;;;;;16.11;72.87;100286.69;10335385;28;20043;-75
2022/08/09 01:41:49;;;;;;;15.77;3.50;;;;;;;16.54;73.63;100365.88;10335390;28;20038;-75
2022/08/09 01:46:50;;;;;;;13.65;3.83;;;;;;;16.54;73.12;100369.41;10335032;28;20129;-75
2022/08/09 01:51:56;;;;;;;218.90;16.00;;;;;;;16.33;74.87;100357.00;10334980;28;20034;-75
2022/08/09 01:57:01;;;;;;;16.23;3.92;;;;;;;16.39;74.71;100374.97;10333721;28;20491;-75
2022/08/09 02:02:02;;;;;;;26.50;4.47;;;;;;;16.40;75.08;100381.13;10334785;28;20046;-75
2022/08/09 02:07:14;;;;;;;11.15;3.45;;;;;;;15.98;76.31;100308.13;10334202;28;20042;-75
2022/08/09 02:12:20;;;;;;;117.47;11.15;;;;;;;15.90;76.48;100309.13;10333734;28;20049;-75
2022/08/09 02:17:26;;;;;;;73.50;7.43;;;;;;;16.17;76.34;100349.34;10333322;28;20038;-75
2022/08/09 02:22:35;;;;;;;26.15;4.20;;;;;;;16.39;76.89;100376.78;10333089;28;20497;-75
2022/08/09 02:27:39;;;;;;;7.88;3.30;;;;;;;16.41;76.54;100386.28;10332891;28;20042;-76
2022/08/09 02:32:44;;;;;;;97.03;7.18;;;;;;;16.03;76.96;100329.75;10333230;28;20584;-76
2022/08/09 02:37:48;;;;;;;13.88;4.20;;;;;;;16.58;77.05;100396.63;10333068;28;20042;-76
2022/08/09 02:42:52;;;;;;;90.13;8.82;;;;;;;16.24;76.95;100312.66;10324727;28;20426;-75
2022/08/09 02:47:55;;;;;;;87.30;8.50;;;;;;;16.95;77.00;100389.81;10309619;28;20077;-76
2022/08/09 02:53:00;;;;;;;8.63;3.67;;;;;;;17.29;76.73;100407.50;10332784;28;20073;-76
2022/08/09 02:58:01;;;;;;;11.73;3.67;;;;;;;17.25;74.47;100331.09;10332109;28;20046;-76
2022/08/09 03:03:06;;;;;;;13.15;4.22;;;;;;;18.07;74.04;100405.75;10331738;28;20549;-76
2022/08/09 03:08:09;;;;;;;15.38;5.50;;;;;;;18.43;72.06;100410.50;10332231;28;20045;-77
2022/08/09 03:13:14;;;;;;;26.88;10.10;;;;;;;18.93;69.79;100415.91;10331467;28;20049;-76
2022/08/09 03:18:16;;;;;;;24.30;9.52;;;;;;;19.60;68.35;100400.69;10331476;28;20049;-76
2022/08/09 03:23:17;;;;;;;35.20;13.55;;;;;;;20.96;64.92;100413.69;10332271;28;20066;-76
2022/08/09 03:28:18;;;;;;;58.45;22.38;;;;;;;22.30;60.66;100399.97;10331609;28;20050;-77
2022/08/09 03:33:20;;;;;;;75.22;27.85;;;;;;;23.63;56.48;100415.53;10331691;28;20404;-76
2022/08/09 03:38:22;;;;;;;64.55;27.92;;;;;;;24.95;53.29;100409.75;10331036;28;20078;-76
2022/08/09 03:43:23;;;;;;;80.53;30.50;;;;;;;26.06;50.91;100412.47;10331514;28;20042;-76
2022/08/09 03:48:25;;;;;;;73.35;28.55;;;;;;;26.47;48.49;100356.09;10332259;28;20042;-77
2022/08/09 03:53:27;;;;;;;50.20;24.20;;;;;;;27.14;45.80;100351.41;10330760;28;20150;-78
2022/08/09 03:58:28;;;;;;;46.53;20.65;;;;;;;28.24;45.24;100415.03;10331226;28;20039;-76
2022/08/09 04:03:30;;;;;;;41.55;17.60;;;;;;;28.81;44.42;100412.66;10331202;28;20518;-77
2022/08/09 04:08:31;;;;;;;37.22;15.98;;;;;;;29.23;42.82;100411.16;10331003;28;20074;-75
2022/08/09 04:13:32;;;;;;;26.05;11.82;;;;;;;29.64;42.04;100403.28;10330282;28;20106;-75
2022/08/09 04:18:34;;;;;;;30.17;10.35;;;;;;;29.75;40.23;100417.66;10314838;28;20034;-75
2022/08/09 04:23:35;;;;;;;42.92;12.23;;;;;;;29.93;40.13;100396.88;10319872;28;20082;-73
2022/08/09 04:28:35;;;;;;;21.05;9.10;;;;;;;30.41;39.11;100402.19;10317252;28;20092;-69
2022/08/09 04:33:38;;;;;;;14.27;6.57;;;;;;;30.16;37.80;100406.94;10338829;28;20077;-71
2022/08/09 04:38:39;;;;;;;18.63;7.22;;;;;;;30.21;37.80;100422.50;10331544;28;20057;-72
2022/08/09 04:43:40;;;;;;;16.83;6.63;;;;;;;30.06;38.59;100349.56;10332848;28;20077;-76
2022/08/09 04:48:41;;;;;;;17.17;4.90;;;;;;;30.17;38.04;100340.06;10336963;28;20576;-72
2022/08/09 04:53:41;;;;;;;9.43;4.90;;;;;;;29.83;37.55;100321.19;10330797;28;20130;-73
2022/08/09 04:58:42;;;;;;;12.93;4.95;;;;;;;29.93;37.48;100370.31;10337134;28;20529;-74
2022/08/09 05:03:43;;;;;;;14.15;5.32;;;;;;;29.76;37.72;100405.59;10336514;28;20042;-73
2022/08/09 05:08:44;;;;;;;14.85;5.43;;;;;;;29.05;38.51;100405.34;10336191;28;20042;-73
2022/08/09 05:13:46;;;;;;;16.27;5.43;;;;;;;28.33;39.04;100368.75;10336274;28;20046;-73
2022/08/09 05:18:46;;;;;;;9.82;5.05;;;;;;;28.22;39.50;100404.38;10335583;28;20041;-72
2022/08/09 05:23:47;;;;;;;38.15;6.45;;;;;;;28.40;41.15;100394.66;10335608;28;20073;-72
2022/08/09 05:28:48;;;;;;;12.85;4.47;;;;;;;28.57;40.06;100390.72;10335447;28;20042;-72
2022/08/09 05:33:49;;;;;;;11.20;3.70;;;;;;;28.77;40.24;100392.47;10335173;28;20049;-73
2022/08/09 05:38:50;;;;;;;9.27;3.85;;;;;;;28.82;38.68;100387.75;10335943;28;20557;-72
2022/08/09 05:43:51;;;;;;;10.52;3.40;;;;;;;28.78;39.26;100384.00;10335079;28;20192;-73
2022/08/09 05:48:51;;;;;;;7.30;3.45;;;;;;;28.69;38.08;100363.84;10335025;28;20046;-73
2022/08/09 05:53:52;;;;;;;10.30;3.15;;;;;;;28.75;37.49;100376.38;10334835;28;20089;-72
2022/08/09 05:58:56;;;;;;;13.35;3.75;;;;;;;28.99;38.30;100362.72;10335029;28;20049;-73
2022/08/09 06:03:58;;;;;;;3.78;1.70;;;;;;;29.32;35.28;100358.25;10333831;28;20563;-72
2022/08/09 06:08:59;;;;;;;14.88;2.65;;;;;;;29.21;35.97;100284.81;10334315;28;20491;-72
2022/08/09 06:13:59;;;;;;;8.88;2.10;;;;;;;29.47;35.50;100299.75;10333330;28;20093;-72
2022/08/09 06:19:00;;;;;;;5.82;2.25;;;;;;;30.07;34.46;100370.38;10334214;28;20046;-73
2022/08/09 06:24:01;;;;;;;10.18;2.33;;;;;;;29.72;33.33;100300.53;10333195;28;20096;-73
2022/08/09 06:29:02;;;;;;;3.67;1.30;;;;;;;30.19;32.21;100381.69;10332957;28;20045;-72
2022/08/09 06:34:03;;;;;;;3.00;1.02;;;;;;;30.32;32.10;100368.38;10332671;28;20038;-73
2022/08/09 06:39:04;;;;;;;1.55;0.90;;;;;;;30.40;31.80;100351.25;10333861;28;20125;-73
2022/08/09 06:44:05;;;;;;;3.72;1.20;;;;;;;30.39;32.43;100325.75;10333633;28;20500;-73
2022/08/09 06:49:06;;;;;;;3.95;1.10;;;;;;;30.31;32.43;100277.13;10332748;28;20042;-73
2022/08/09 06:54:07;;;;;;;8.50;1.73;;;;;;;30.84;31.67;100353.50;10332597;28;20042;-74
2022/08/09 06:59:08;;;;;;;5.63;1.13;;;;;;;30.88;31.53;100381.94;10331426;28;20038;-74
2022/08/09 07:04:09;;;;;;;10.73;1.60;;;;;;;30.92;31.31;100368.41;10331328;28;20046;-73
2022/08/09 07:09:11;;;;;;;5.45;1.33;;;;;;;30.84;30.76;100361.72;10331574;28;20038;-72
2022/08/09 07:14:16;;;;;;;3.47;1.20;;;;;;;31.05;30.40;100353.06;10331500;28;20042;-73
2022/08/09 07:19:17;;;;;;;8.75;1.42;;;;;;;31.14;30.69;100362.22;10332013;28;20084;-73
2022/08/09 07:24:18;;;;;;;6.50;1.10;;;;;;;31.17;30.02;100345.13;10332148;28;20400;-73
2022/08/09 07:29:19;;;;;;;2.33;1.10;;;;;;;31.31;29.67;100345.13;10346331;28;20585;-72
2022/08/09 07:34:20;;;;;;;6.45;1.20;;;;;;;30.81;29.43;100266.34;10331104;28;20410;-74
2022/08/09 07:39:21;;;;;;;3.45;1.00;;;;;;;31.15;29.74;100325.44;10331084;28;20074;-74
2022/08/09 07:44:22;;;;;;;3.97;1.10;;;;;;;31.42;29.90;100329.31;10331424;28;20053;-73
2022/08/09 07:49:23;;;;;;;6.45;1.35;;;;;;;31.25;29.40;100262.09;10331090;28;20039;-72
2022/08/09 07:54:27;;;;;;;11.07;1.65;;;;;;;31.29;29.56;100252.16;10330771;28;20084;-72
2022/08/09 07:59:27;;;;;;;4.18;1.50;;;;;;;31.20;29.03;100243.00;10330626;28;20093;-72
2022/08/09 08:04:28;;;;;;;4.38;1.20;;;;;;;31.62;29.27;100306.91;10330536;28;20042;-71
2022/08/09 08:09:30;;;;;;;12.73;1.63;;;;;;;31.52;28.83;100294.19;10331798;28;20042;-71
2022/08/09 08:14:31;;;;;;;7.35;1.30;;;;;;;31.32;29.13;100232.31;10336752;28;20104;-72
2022/08/09 08:19:32;;;;;;;7.25;1.27;;;;;;;31.58;28.22;100235.28;10338452;28;20038;-73
2022/08/09 08:24:33;;;;;;;17.90;1.70;;;;;;;32.21;28.50;100285.66;10337984;28;20069;-72
2022/08/09 08:29:33;;;;;;;6.47;1.35;;;;;;;32.22;28.62;100243.34;10338407;28;20044;-72
2022/08/09 08:34:34;;;;;;;6.20;1.02;;;;;;;31.96;27.37;100212.97;10338114;28;20125;-73
2022/08/09 08:39:35;;;;;;;4.20;1.15;;;;;;;32.28;28.05;100263.25;10337097;28;20038;-74
2022/08/09 08:44:36;;;;;;;5.07;1.25;;;;;;;32.37;28.27;100255.03;10337580;28;20160;-73
2022/08/09 08:49:39;;;;;;;9.90;1.58;;;;;;;32.12;28.21;100221.59;10336754;28;20042;-74
2022/08/09 08:54:40;;;;;;;6.65;1.30;;;;;;;32.59;27.84;100266.00;10337686;28;20398;-73
2022/08/09 08:59:41;;;;;;;2.63;1.10;;;;;;;32.06;27.33;100195.38;10336394;28;20053;-74
2022/08/09 09:04:43;;;;;;;4.63;1.60;;;;;;;32.41;26.88;100245.03;10336059;28;20042;-72
2022/08/09 09:09:48;;;;;;;;;;;;;;;32.71;26.19;100262.66;10337093;28;20073;-71
2022/08/09 09:14:50;;;;;;;7.43;1.40;;;;;;;32.77;27.35;100255.06;10336737;28;19918;-71
2022/08/09 09:19:52;;;;;;;4.88;1.15;;;;;;;32.10;26.42;100174.41;10335809;28;20042;-78
2022/08/09 09:24:55;;;;;;;4.13;1.20;;;;;;;32.61;25.96;100249.16;10333986;28;20062;-71
2022/08/09 09:29:55;;;;;;;10.32;1.38;;;;;;;32.60;26.73;100240.13;10335856;28;20110;-71
2022/08/09 09:35:09;;;;;;;10.57;1.70;;;;;;;33.03;26.60;100250.47;10335582;28;20038;-72
2022/08/09 09:40:10;;;;;;;10.07;1.83;;;;;;;32.63;25.76;100165.22;10335020;28;20052;-72
2022/08/09 09:45:11;;;;;;;9.23;1.20;;;;;;;32.96;25.80;100233.56;10334743;28;20101;-72
2022/08/09 09:50:12;;;;;;;6.95;1.33;;;;;;;32.51;26.00;100170.53;10334401;28;20046;-72
2022/08/09 09:55:14;;;;;;;7.18;1.42;;;;;;;32.74;25.85;100179.50;10335365;28;20042;-73
2022/08/09 10:00:22;;;;;;;14.30;2.13;;;;;;;33.20;25.44;100238.66;10334587;28;20042;-73
2022/08/09 10:05:24;;;;;;;8.77;1.67;;;;;;;33.15;25.62;100230.59;10333914;28;20301;-72
2022/08/09 10:10:29;;;;;;;8.88;1.40;;;;;;;32.98;25.11;100203.84;10334716;28;20038;-73
2022/08/09 10:15:30;;;;;;;7.60;1.40;;;;;;;33.04;25.52;100218.25;10324227;28;20554;-72
2022/08/09 10:20:31;;;;;;;6.50;1.50;;;;;;;32.84;25.65;100214.94;10311313;28;20057;-72
2022/08/09 10:25:33;;;;;;;5.57;1.40;;;;;;;32.87;25.46;100213.50;10332628;28;20426;-71
2022/08/09 10:30:34;;;;;;;4.10;1.05;;;;;;;32.58;25.61;100161.81;10328084;28;20070;-70
2022/08/09 10:35:37;;;;;;;5.47;1.33;;;;;;;33.01;25.20;100202.41;10326847;28;20057;-72
2022/08/09 10:40:38;;;;;;;8.75;1.48;;;;;;;33.13;25.52;100192.34;10332029;28;20038;-72
2022/08/09 10:45:43;;;;;;;5.53;1.40;;;;;;;32.86;25.58;100126.59;10331520;28;20049;-73
2022/08/09 10:56:38;;;;;;;5.15;1.60;;;;;;;33.44;24.54;100199.63;10333116;28;20507;-71
2022/08/09 11:01:40;;;;;;;8.23;1.73;;;;;;;33.02;25.31;100182.00;10327777;28;20142;-78
2022/08/09 11:06:42;;;;;;;2.67;1.02;;;;;;;32.82;24.92;100205.38;10326508;28;20301;-72
2022/08/09 11:11:58;;;;;;;5.43;1.60;;;;;;;33.00;26.47;100195.25;10331486;28;20046;-69
2022/08/09 11:16:59;;;;;;;6.43;1.10;;;;;;;32.38;25.99;100058.75;10331605;28;20042;-74
2022/08/09 11:22:00;;;;;;;9.75;1.40;;;;;;;32.70;26.40;100173.03;10332259;28;20034;-70
2022/08/09 11:27:44;;;;;;;6.65;1.92;;;;;;;32.36;25.78;100177.25;10326889;28;20062;-72
2022/08/09 11:32:49;;;;;;;4.32;1.60;;;;;;;32.53;25.90;100172.97;10313518;28;20050;-72
2022/08/09 11:37:51;;;;;;;9.68;1.73;;;;;;;32.70;26.57;100137.28;10298224;28;20085;-76
2022/08/09 11:42:55;;;;;;;6.80;1.25;;;;;;;32.06;26.27;100071.75;10291334;28;20173;-72
2022/08/09 11:47:59;;;;;;;16.15;1.70;;;;;;;32.72;26.16;100121.25;10295926;28;20141;-72
2022/08/09 11:52:59;;;;;;;6.78;1.70;;;;;;;33.18;26.02;100147.38;10299339;28;20061;-70
2022/08/09 11:58:02;;;;;;;5.72;1.25;;;;;;;32.80;26.36;100163.66;10298800;28;20054;-69
2022/08/09 12:03:03;;;;;;;4.85;1.20;;;;;;;32.21;26.81;100145.50;10299254;28;20035;-72
2022/08/09 12:08:09;;;;;;;9.13;1.65;;;;;;;32.41;26.49;100146.06;10298059;28;20517;-74
2022/08/09 12:13:11;;;;;;;21.23;1.60;;;;;;;32.36;26.77;100124.22;10298550;28;20038;-72
2022/08/09 12:18:17;;;;;;;7.47;1.57;;;;;;;32.20;26.90;100143.09;10298086;28;20050;-74
2022/08/09 12:23:18;;;;;;;7.22;1.33;;;;;;;32.69;26.28;100136.44;10297895;28;20065;-71
2022/08/09 12:28:22;;;;;;;8.13;1.50;;;;;;;32.62;26.21;100080.31;10295199;28;20065;-71
2022/08/09 12:33:23;;;;;;;3.35;1.30;;;;;;;33.07;25.30;100141.38;10299333;28;20555;-70
2022/08/09 12:38:29;;;;;;;13.02;2.00;;;;;;;33.18;25.38;100131.66;10303523;28;20121;-70
2022/08/09 12:43:30;;;;;;;5.97;1.30;;;;;;;32.85;26.04;100138.75;10312534;28;20056;-73
2022/08/09 12:48:32;;;;;;;7.45;1.77;;;;;;;31.51;25.95;100009.00;10332295;28;20108;-73
2022/08/09 12:53:36;;;;;;;8.75;1.50;;;;;;;31.53;26.30;100102.81;10334728;28;20521;-72
2022/08/09 12:58:39;;;;;;;13.13;1.77;;;;;;;31.45;27.01;100133.78;10333407;28;20093;-72
2022/08/09 13:03:40;;;;;;;6.63;1.30;;;;;;;31.80;26.96;100141.13;10334611;28;20054;-71
2022/08/09 13:09:01;;;;;;;9.98;1.45;;;;;;;31.57;26.42;100062.63;10331726;28;20038;-69
2022/08/09 13:14:03;;;;;;;8.43;2.28;;;;;;;31.33;27.00;100102.19;10331701;28;20113;-70
2022/08/09 13:19:04;;;;;;;15.40;2.30;;;;;;;31.45;26.92;100136.53;10315730;28;20042;-73
2022/08/09 13:24:09;;;;;;;10.80;1.90;;;;;;;31.48;27.57;100083.75;10296104;28;20062;-73
2022/08/09 13:29:12;;;;;;;11.02;1.38;;;;;;;31.75;26.80;100133.00;10295149;28;20041;-75
2022/08/09 13:34:13;;;;;;;8.25;1.48;;;;;;;31.93;26.51;100120.19;10319295;28;20129;-72
2022/08/09 13:39:15;;;;;;;5.03;1.50;;;;;;;31.99;26.13;100118.13;10327396;28;20513;-75
2022/08/09 13:44:17;;;;;;;9.65;1.40;;;;;;;32.15;26.32;100110.25;10330733;28;20085;-71
2022/08/09 13:49:17;;;;;;;3.88;1.40;;;;;;;32.22;26.90;100116.09;10330454;28;20039;-73
2022/08/09 13:54:18;;;;;;;15.27;1.92;;;;;;;32.34;26.27;100109.97;10316949;28;20486;-72
2022/08/09 13:59:19;;;;;;;7.57;1.42;;;;;;;32.26;26.61;100106.09;10315807;28;20054;-70
2022/08/09 14:04:20;;;;;;;10.68;1.60;;;;;;;32.20;26.34;100108.16;10334357;28;20141;-73
2022/08/09 14:09:21;;;;;;;24.10;2.15;;;;;;;32.12;25.84;100099.91;10334239;28;20046;-72
2022/08/09 14:14:23;;;;;;;6.20;1.13;;;;;;;31.93;26.05;100080.94;10333089;28;20058;-74
2022/08/09 14:19:24;;;;;;;17.15;1.80;;;;;;;32.03;26.30;100097.13;10333674;28;20042;-76
2022/08/09 14:24:25;;;;;;;15.90;1.95;;;;;;;31.20;26.46;99971.34;10333265;28;20062;-74
2022/08/09 14:29:26;;;;;;;10.80;1.77;;;;;;;31.94;25.90;100104.50;10334348;28;20397;-74
2022/08/09 14:34:27;;;;;;;7.53;1.50;;;;;;;31.75;25.76;100094.53;10331649;28;20046;-72
2022/08/09 14:39:28;;;;;;;23.38;2.42;;;;;;;31.26;26.38;100048.84;10333065;28;20042;-73
2022/08/09 14:44:29;;;;;;;27.15;2.30;;;;;;;31.57;26.19;100101.06;10331919;28;20171;-71
2022/08/09 14:49:30;;;;;;;9.15;1.52;;;;;;;31.51;25.94;100110.56;10332970;28;20110;-74
2022/08/09 14:54:31;;;;;;;6.45;1.73;;;;;;;31.23;26.46;100080.50;10332090;28;20101;-74
2022/08/09 14:59:32;;;;;;;5.25;1.40;;;;;;;31.01;26.86;100053.06;10332290;28;20050;-73
2022/08/09 15:04:33;;;;;;;29.02;2.92;;;;;;;30.98;26.66;100061.91;10331883;28;20076;-74
2022/08/09 15:09:34;;;;;;;12.98;2.65;;;;;;;31.16;26.77;100102.88;10331719;28;20467;-74
2022/08/09 15:14:34;;;;;;;7.28;1.40;;;;;;;31.05;26.57;100106.16;10309172;28;20399;-73
2022/08/09 15:19:36;;;;;;;11.20;1.75;;;;;;;30.41;26.70;100022.06;10290643;28;20537;-75
2022/08/09 15:24:36;;;;;;;8.13;1.17;;;;;;;30.84;27.21;100100.34;10291480;28;20435;-74
2022/08/09 15:29:37;;;;;;;6.65;1.50;;;;;;;30.74;26.68;100117.00;10291563;28;20133;-73
2022/08/09 15:34:38;;;;;;;11.98;2.22;;;;;;;30.57;27.02;100110.22;10292025;28;20039;-73
2022/08/09 15:39:39;;;;;;;19.42;1.92;;;;;;;30.25;27.42;100087.34;10293602;28;20038;-74
2022/08/09 15:44:40;;;;;;;10.70;1.67;;;;;;;30.17;27.63;100103.66;10310925;28;20057;-73
2022/08/09 15:49:41;;;;;;;38.65;2.90;;;;;;;29.24;28.81;99995.03;10312440;28;20052;-73
2022/08/09 15:54:41;;;;;;;7.00;1.20;;;;;;;29.33;28.75;100030.72;10331484;28;20130;-73
2022/08/09 15:59:42;;;;;;;6.22;1.30;;;;;;;29.69;28.67;100117.69;10331074;28;20121;-73
2022/08/09 16:04:43;;;;;;;7.95;1.13;;;;;;;29.63;28.74;100125.19;10330527;28;20049;-73
2022/08/09 16:09:44;;;;;;;14.07;2.35;;;;;;;29.44;29.31;100127.16;10330413;28;20043;-73
2022/08/09 16:14:45;;;;;;;10.50;3.60;;;;;;;29.21;29.57;100116.00;10331364;28;20064;-73
2022/08/09 16:19:46;;;;;;;15.10;3.30;;;;;;;28.54;29.71;100034.16;10326832;28;20050;-72
2022/08/09 16:24:47;;;;;;;17.05;2.55;;;;;;;28.92;29.92;100115.31;10330349;28;20070;-74
2022/08/09 16:29:48;;;;;;;8.02;1.50;;;;;;;28.65;30.03;100101.19;10330351;28;20109;-74
2022/08/09 16:34:49;;;;;;;25.00;2.80;;;;;;;28.57;30.34;100111.97;10336246;28;20038;-73
2022/08/09 16:39:50;;;;;;;4.68;1.10;;;;;;;28.25;30.78;100085.31;10338321;28;20403;-76
2022/08/09 16:44:50;;;;;;;6.80;1.88;;;;;;;27.83;31.24;100045.94;10336957;28;20050;-74
2022/08/09 16:49:51;;;;;;;20.52;2.45;;;;;;;28.20;31.51;100136.16;10336812;28;20030;-73
2022/08/09 16:54:53;;;;;;;19.00;2.20;;;;;;;28.07;31.36;100147.78;10330579;28;20065;-71
2022/08/09 16:59:54;;;;;;;9.63;1.67;;;;;;;27.48;31.67;100075.19;10298453;28;20387;-72
2022/08/09 17:04:54;;;;;;;6.03;1.73;;;;;;;27.63;32.46;100137.78;10303241;28;20041;-77
2022/08/09 17:09:56;;;;;;;8.50;1.75;;;;;;;27.68;32.49;100166.97;10333202;28;20494;-72
2022/08/09 17:14:57;;;;;;;15.15;1.70;;;;;;;27.54;32.66;100153.16;10328081;28;20066;-72
2022/08/09 17:19:57;;;;;;;7.57;1.55;;;;;;;27.54;32.68;100177.72;10326811;28;20487;-71
2022/08/09 17:25:00;;;;;;;7.22;1.40;;;;;;;27.48;33.04;100185.13;10301850;28;20526;-75
2022/08/09 17:30:02;;;;;;;9.23;1.70;;;;;;;27.41;32.99;100175.66;10320993;28;20082;-75
2022/08/09 17:35:03;;;;;;;9.23;1.23;;;;;;;27.03;33.12;100129.78;10305600;28;20145;-72
2022/08/09 17:40:05;;;;;;;10.35;1.77;;;;;;;27.22;33.25;100181.78;10294792;28;20046;-74
2022/08/09 17:45:07;;;;;;;8.00;1.73;;;;;;;27.09;33.22;100179.63;10326877;28;20524;-73
2022/08/09 17:50:10;;;;;;;5.60;1.70;;;;;;;27.10;33.63;100189.44;10332325;28;20057;-73
2022/08/09 17:55:11;;;;;;;6.40;1.33;;;;;;;27.03;34.02;100184.28;10326126;28;20050;-74
2022/08/09 18:00:12;;;;;;;15.65;1.70;;;;;;;26.64;34.54;100151.53;10326660;28;20054;-75
2022/08/09 18:05:13;;;;;;;7.22;1.50;;;;;;;26.67;34.74;100175.47;10317282;28;20046;-72
2022/08/09 18:10:14;;;;;;;9.55;1.73;;;;;;;26.03;34.98;100099.97;10334468;28;20125;-72
2022/08/09 18:15:15;;;;;;;7.85;1.70;;;;;;;26.11;34.79;100134.78;10333217;28;20054;-73
2022/08/09 18:20:16;;;;;;;6.45;1.80;;;;;;;26.23;35.00;100164.44;10303425;28;20043;-72
2022/08/09 18:25:17;;;;;;;12.15;1.90;;;;;;;26.25;34.79;100165.78;10303499;28;20067;-72
2022/08/09 18:30:18;;;;;;;6.82;1.90;;;;;;;26.07;34.92;100163.66;10293393;28;20495;-76
2022/08/09 18:35:18;;;;;;;8.50;1.80;;;;;;;26.03;34.94;100159.88;10291968;28;20051;-72
2022/08/09 18:40:19;;;;;;;14.35;1.98;;;;;;;25.91;34.67;100157.44;10299823;28;20118;-71
2022/08/09 18:45:20;;;;;;;10.02;2.08;;;;;;;25.84;35.09;100162.31;10300260;28;20117;-72
2022/08/09 18:50:23;;;;;;;4.25;1.77;;;;;;;25.70;35.07;100168.31;10292254;28;20039;-74
2022/08/09 18:55:23;;;;;;;7.32;1.77;;;;;;;25.41;35.34;100140.81;10298536;28;20046;-72
2022/08/09 19:00:25;;;;;;;3.67;1.40;;;;;;;25.28;35.45;100133.22;10330970;28;20499;-73
2022/08/09 19:05:26;;;;;;;10.27;1.50;;;;;;;25.26;35.49;100147.06;10303816;28;20108;-73
2022/08/09 19:10:27;;;;;;;8.75;1.75;;;;;;;25.24;35.47;100143.78;10331965;28;20580;-73
2022/08/09 19:15:28;;;;;;;7.00;1.55;;;;;;;24.77;35.32;100081.47;10324490;28;20043;-73
2022/08/09 19:20:28;;;;;;;3.38;1.33;;;;;;;24.88;35.04;100106.75;10329873;28;20053;-72
2022/08/09 19:25:29;;;;;;;7.03;1.77;;;;;;;24.89;35.59;100124.66;10329431;28;20065;-72
2022/08/09 19:30:32;;;;;;;6.22;1.83;;;;;;;24.05;35.42;99988.91;10318353;28;20458;-73
2022/08/09 19:35:33;;;;;;;4.75;1.40;;;;;;;24.75;36.10;100125.19;10330873;28;20137;-74
2022/08/09 19:40:34;;;;;;;3.78;1.42;;;;;;;24.08;36.12;100023.66;10331611;28;20046;-73
2022/08/09 19:45:34;;;;;;;5.32;1.58;;;;;;;24.20;36.30;100049.75;10331253;28;20133;-73
2022/08/09 19:50:35;;;;;;;4.53;1.45;;;;;;;24.20;36.28;100066.03;10305054;28;20038;-73
2022/08/09 19:55:36;;;;;;;7.20;1.40;;;;;;;24.40;36.92;100128.56;10291421;28;20054;-73
2022/08/09 20:00:41;;;;;;;5.18;1.30;;;;;;;24.25;36.72;100120.34;10290753;28;20396;-73
2022/08/09 20:05:41;;;;;;;3.83;1.48;;;;;;;24.30;37.13;100133.94;10291170;28;20482;-73
2022/08/09 20:10:44;;;;;;;5.60;1.50;;;;;;;24.11;37.04;100115.41;10298082;28;20066;-73
2022/08/09 20:15:45;;;;;;;3.67;1.23;;;;;;;24.21;37.19;100124.66;10298413;28;20101;-74
2022/08/09 20:20:46;;;;;;;8.65;1.35;;;;;;;23.90;36.97;100081.06;10298271;28;20043;-73
2022/08/09 20:25:47;;;;;;;10.77;1.20;;;;;;;23.01;37.28;99953.34;10298353;28;20066;-73
2022/08/09 20:30:48;;;;;;;6.05;1.50;;;;;;;23.89;37.56;100117.41;10297523;28;20043;-73
2022/08/09 20:35:49;;;;;;;10.40;1.65;;;;;;;23.23;37.98;100012.00;10297950;28;20039;-73
2022/08/09 20:40:50;;;;;;;3.35;1.40;;;;;;;23.86;38.37;100113.34;10297267;28;20502;-74
2022/08/09 20:45:51;;;;;;;10.45;1.40;;;;;;;23.66;38.09;100089.59;10297363;28;20129;-74
2022/08/09 20:50:52;;;;;;;10.35;1.48;;;;;;;23.61;38.43;100102.28;10302029;28;20070;-74
2022/08/09 20:55:53;;;;;;;6.72;1.70;;;;;;;23.53;38.88;100103.56;10314381;28;20045;-74
2022/08/09 21:00:54;;;;;;;22.73;2.47;;;;;;;23.46;39.44;100092.16;10296545;28;20035;-74
2022/08/09 21:05:55;;;;;;;5.93;1.17;;;;;;;23.36;40.28;100092.06;10296119;28;20051;-75
2022/08/09 21:10:55;;;;;;;6.57;1.58;;;;;;;23.12;41.44;100091.56;10321832;28;20042;-74
2022/08/09 21:15:56;;;;;;;9.75;1.85;;;;;;;22.42;42.22;100002.03;10335995;28;20514;-74
2022/08/09 21:20:58;;;;;;;6.32;1.33;;;;;;;22.08;43.30;100009.47;10350447;28;20486;-74
2022/08/09 21:25:59;;;;;;;21.80;1.95;;;;;;;22.36;43.60;100078.03;10336289;28;20064;-75
2022/08/09 21:31:00;;;;;;;25.17;2.83;;;;;;;22.25;44.47;100085.19;10336000;28;20538;-74
2022/08/09 21:36:00;;;;;;;15.45;2.60;;;;;;;21.64;44.90;100017.56;10336410;28;20553;-74
2022/08/09 21:41:02;;;;;;;8.23;1.88;;;;;;;21.83;45.72;100088.38;10335535;28;20515;-74
2022/08/09 21:46:03;;;;;;;11.38;1.80;;;;;;;21.77;44.92;100082.06;10335442;28;20090;-74
2022/08/09 21:51:04;;;;;;;6.90;1.60;;;;;;;21.85;44.58;100073.53;10334738;28;20058;-74
2022/08/09 21:56:05;;;;;;;15.75;2.03;;;;;;;21.83;45.12;100064.03;10334430;28;20046;-74
2022/08/09 22:01:06;;;;;;;22.70;2.42;;;;;;;21.75;46.32;100059.06;10323289;28;20035;-74
2022/08/09 22:06:07;;;;;;;12.25;2.42;;;;;;;21.54;46.52;100050.66;10296148;28;20050;-74
2022/08/09 22:11:07;;;;;;;8.27;1.67;;;;;;;21.05;46.52;100003.66;10293740;28;20050;-75
2022/08/09 22:16:09;;;;;;;10.95;2.45;;;;;;;21.26;46.99;100062.34;10293365;28;20081;-74
2022/08/09 22:21:10;;;;;;;6.38;1.77;;;;;;;21.15;47.47;100057.84;10293898;28;20089;-74
2022/08/09 22:26:11;;;;;;;9.90;1.90;;;;;;;21.05;47.90;100044.97;10294538;28;20590;-74
2022/08/09 22:31:11;;;;;;;12.93;1.83;;;;;;;20.99;48.10;100032.44;10291807;28;20042;-74
2022/08/09 22:36:12;;;;;;;5.55;1.48;;;;;;;21.03;48.32;100038.16;10293376;28;20043;-74
2022/08/09 22:41:13;;;;;;;7.50;1.45;;;;;;;21.06;48.88;100053.88;10292494;28;20049;-74
2022/08/09 22:46:14;;;;;;;4.78;1.35;;;;;;;20.91;47.90;100036.38;10292399;28;20097;-74
2022/08/09 22:51:14;;;;;;;4.95;1.50;;;;;;;20.52;47.72;99984.94;10292735;28;20138;-74
2022/08/09 22:56:15;;;;;;;10.43;1.80;;;;;;;20.80;47.90;100034.56;10292094;28;20502;-74
2022/08/09 23:01:16;;;;;;;5.00;1.45;;;;;;;20.48;48.64;100032.31;10292431;28;20038;-74
2022/08/09 23:06:17;;;;;;;8.90;1.50;;;;;;;20.34;49.86;100047.16;10301542;28;20510;-73
2022/08/09 23:11:21;;;;;;;5.72;1.85;;;;;;;19.52;51.68;99953.75;10331876;28;20038;-75